createdAt,value
2022-07-28T00:00:40.019Z,100553.20
2022-07-28T00:05:45.191Z,100554.20
2022-07-28T00:10:48.631Z,100552.40
2022-07-28T00:15:52.059Z,100547.60
2022-07-28T00:20:55.472Z,100538.20
2022-07-28T00:25:58.867Z,100545.40
2022-07-28T00:31:05.126Z,100546.40
2022-07-28T00:36:11.853Z,100542.20
2022-07-28T00:41:16.950Z,100552.40
2022-07-28T00:46:23.203Z,100557.80
2022-07-28T00:51:28.797Z,100560.60
2022-07-28T00:56:36.417Z,100564.00
2022-07-28T01:01:39.890Z,100567.20
2022-07-28T01:06:57.162Z,100565.00
2022-07-28T01:12:24.540Z,100560.80
2022-07-28T01:17:59.194Z,100560.80
2022-07-28T01:23:29.763Z,100554.80
2022-07-28T01:29:17.695Z,100546.60
2022-07-28T01:34:31.961Z,100551.60
2022-07-28T01:39:39.370Z,100547.20
2022-07-28T01:44:49.069Z,100546.20
2022-07-28T01:49:55.822Z,100539.20
2022-07-28T01:55:02.735Z,100532.40
2022-07-28T02:00:14.430Z,100538.60
2022-07-28T02:05:22.693Z,100535.20
2022-07-28T02:10:28.323Z,100535.40
2022-07-28T02:15:33.112Z,100533.20
2022-07-28T02:20:37.450Z,100532.60
2022-07-28T02:25:42.329Z,100535.80
2022-07-28T02:31:05.881Z,100544.00
2022-07-28T02:36:20.513Z,100546.20
2022-07-28T02:41:30.278Z,100545.40
2022-07-28T02:46:43.109Z,100549.80
2022-07-28T02:51:51.851Z,100545.00
2022-07-28T02:56:58.718Z,100545.20
2022-07-28T03:02:03.487Z,100553.20
2022-07-28T03:07:07.270Z,100552.20
2022-07-28T03:12:11.750Z,100560.20
2022-07-28T03:17:15.819Z,100551.20
2022-07-28T03:22:19.398Z,100557.00
2022-07-28T03:27:35.201Z,100564.20
2022-07-28T03:32:47.398Z,100566.40
2022-07-28T03:37:58.009Z,100569.60
2022-07-28T03:43:06.625Z,100564.60
2022-07-28T03:48:10.051Z,100569.80
2022-07-28T03:53:27.369Z,100568.80
2022-07-28T03:58:30.931Z,100570.20
2022-07-28T04:03:43.145Z,100574.80
2022-07-28T04:08:47.778Z,100570.40
2022-07-28T04:13:51.295Z,100568.40
2022-07-28T04:18:54.909Z,100575.00
2022-07-28T04:24:01.755Z,100577.40
2022-07-28T04:29:06.117Z,100578.00
2022-07-28T04:34:10.148Z,100579.00
2022-07-28T04:39:13.579Z,100579.40
2022-07-28T04:44:17.893Z,100570.80
2022-07-28T04:49:21.610Z,100572.60
2022-07-28T04:54:26.759Z,100584.80
2022-07-28T04:59:30.891Z,100589.40
2022-07-28T05:04:36.248Z,100590.00
2022-07-28T05:09:39.873Z,100591.00
2022-07-28T05:14:43.313Z,100594.60
2022-07-28T05:19:46.831Z,100597.00
2022-07-28T05:24:50.451Z,100601.20
2022-07-28T05:29:54.680Z,100609.60
2022-07-28T05:34:59.657Z,100615.80
2022-07-28T05:40:10.626Z,100620.60
2022-07-28T05:45:15.647Z,100623.80
2022-07-28T05:50:23.193Z,100622.40
2022-07-28T05:55:26.914Z,100630.40
2022-07-28T06:00:32.492Z,100630.80
2022-07-28T06:05:37.655Z,100640.40
2022-07-28T06:11:02.542Z,100644.00
2022-07-28T06:16:12.634Z,100650.00
2022-07-28T06:21:16.803Z,100648.00
2022-07-28T06:26:23.502Z,100658.80
2022-07-28T06:31:27.176Z,100662.00
2022-07-28T06:36:30.571Z,100664.40
2022-07-28T06:41:33.986Z,100668.80
2022-07-28T06:46:38.454Z,100669.40
2022-07-28T06:51:41.935Z,100674.00
2022-07-28T06:56:45.567Z,100675.00
2022-07-28T07:01:53.066Z,100682.00
2022-07-28T07:06:56.785Z,100690.20
2022-07-28T07:12:00.612Z,100685.20
2022-07-28T07:17:04.549Z,100689.80
2022-07-28T07:22:08.054Z,100699.80
2022-07-28T07:27:11.569Z,100704.20
2022-07-28T07:32:15.089Z,100695.60
2022-07-28T07:37:18.462Z,100703.00
2022-07-28T07:42:24.650Z,100702.80
2022-07-28T07:47:28.405Z,100704.60
2022-07-28T07:52:32.435Z,100706.60
2022-07-28T07:57:35.839Z,100709.00
2022-07-28T08:02:43.853Z,100723.80
2022-07-28T08:07:47.377Z,100721.40
2022-07-28T08:12:50.808Z,100718.40
2022-07-28T08:17:54.185Z,100730.40
2022-07-28T08:22:58.835Z,100734.20
2022-07-28T08:28:02.262Z,100739.00
2022-07-28T08:33:05.820Z,100736.80
2022-07-28T08:38:11.615Z,100737.60
2022-07-28T08:43:33.596Z,100742.40
2022-07-28T08:48:39.323Z,100734.20
2022-07-28T08:53:44.079Z,100748.40
2022-07-28T08:58:47.627Z,100747.60
2022-07-28T09:03:52.522Z,100758.40
2022-07-28T09:08:55.870Z,100749.40
2022-07-28T09:14:00.530Z,100759.40
2022-07-28T09:19:04.168Z,100764.60
2022-07-28T09:24:08.244Z,100772.00
2022-07-28T09:29:11.803Z,100771.20
2022-07-28T09:34:18.343Z,100772.60
2022-07-28T09:39:37.090Z,100782.60
2022-07-28T09:44:41.145Z,100781.80
2022-07-28T09:49:44.877Z,100774.20
2022-07-28T09:55:11.574Z,100773.40
2022-07-28T10:00:31.878Z,100769.60
2022-07-28T10:05:41.663Z,100772.00
2022-07-28T10:11:00.350Z,100767.40
2022-07-28T10:16:11.684Z,100775.20
2022-07-28T10:21:18.726Z,100783.40
2022-07-28T10:26:47.318Z,100780.20
2022-07-28T10:32:05.473Z,100764.20
2022-07-28T10:37:20.791Z,100770.80
2022-07-28T10:42:24.693Z,100777.20
2022-07-28T10:47:35.665Z,100787.40
2022-07-28T10:52:53.496Z,100787.20
2022-07-28T10:58:24.949Z,100795.80
2022-07-28T11:03:41.227Z,100790.60
2022-07-28T11:08:47.503Z,100788.40
2022-07-28T11:13:51.349Z,100786.80
2022-07-28T11:19:36.190Z,100779.60
2022-07-28T11:24:57.822Z,100776.00
2022-07-28T11:30:01.719Z,100781.80
2022-07-28T11:35:09.332Z,100781.80
2022-07-28T11:40:46.361Z,100790.60
2022-07-28T11:46:03.486Z,100786.40
2022-07-28T11:51:06.981Z,100791.00
2022-07-28T11:56:27.422Z,100784.20
2022-07-28T12:01:31.995Z,100790.20
2022-07-28T12:06:40.637Z,100796.40
2022-07-28T12:11:47.123Z,100796.20
2022-07-28T12:16:52.390Z,100792.20
2022-07-28T12:21:57.129Z,100790.80
2022-07-28T12:27:01.237Z,100798.40
2022-07-28T12:32:12.441Z,100809.20
2022-07-28T12:37:16.271Z,100809.40
2022-07-28T12:42:20.606Z,100814.00
2022-07-28T12:47:28.351Z,100819.40
2022-07-28T12:52:31.774Z,100821.00
2022-07-28T12:57:51.247Z,100824.60
2022-07-28T13:03:00.657Z,100823.80
2022-07-28T13:08:06.527Z,100822.20
2022-07-28T13:13:10.487Z,100832.60
2022-07-28T13:18:13.996Z,100822.80
2022-07-28T13:23:17.518Z,100832.80
2022-07-28T13:28:27.000Z,100836.60
2022-07-28T13:33:30.588Z,100830.60
2022-07-28T13:38:34.391Z,100836.00
2022-07-28T13:43:37.711Z,100832.20
2022-07-28T13:48:57.351Z,100836.00
2022-07-28T13:54:01.647Z,100839.80
2022-07-28T13:59:07.276Z,100839.00
2022-07-28T14:04:17.016Z,100837.80
2022-07-28T14:09:21.616Z,100836.60
2022-07-28T14:14:25.659Z,100840.40
2022-07-28T14:19:39.426Z,100836.20
2022-07-28T14:24:43.224Z,100842.00
2022-07-28T14:29:47.243Z,100835.80
2022-07-28T14:34:50.984Z,100844.20
2022-07-28T14:39:56.946Z,100844.40
2022-07-28T14:45:02.720Z,100839.60
2022-07-28T14:50:07.294Z,100842.80
2022-07-28T14:55:11.181Z,100847.80
2022-07-28T15:00:17.439Z,100856.20
2022-07-28T15:05:23.146Z,100848.60
2022-07-28T15:10:26.707Z,100851.40
2022-07-28T15:15:30.264Z,100849.80
2022-07-28T15:20:43.105Z,100859.20
2022-07-28T15:25:47.782Z,100865.60
2022-07-28T15:30:52.779Z,100860.40
2022-07-28T15:36:00.920Z,100862.80
2022-07-28T15:41:05.223Z,100823.20
2022-07-28T15:46:13.195Z,100812.40
2022-07-28T15:51:16.796Z,100813.00
2022-07-28T15:56:20.205Z,100821.60
2022-07-28T16:01:26.712Z,100830.80
2022-07-28T16:06:51.716Z,100833.20
2022-07-28T16:11:55.147Z,100850.40
2022-07-28T16:16:58.540Z,100860.40
2022-07-28T16:22:03.310Z,100866.60
2022-07-28T16:27:06.697Z,100833.20
2022-07-28T16:32:10.417Z,100837.20
2022-07-28T16:37:19.067Z,100840.00
2022-07-28T16:42:23.313Z,100845.80
2022-07-28T16:47:26.710Z,100840.00
2022-07-28T16:52:30.320Z,100847.20
2022-07-28T16:57:33.644Z,100857.80
2022-07-28T17:02:37.148Z,100857.40
2022-07-28T17:07:46.258Z,100895.60
2022-07-28T17:12:50.480Z,100874.80
2022-07-28T17:17:56.229Z,100861.60
2022-07-28T17:23:00.025Z,100873.00
2022-07-28T17:28:05.730Z,100865.80
2022-07-28T17:33:09.246Z,100898.80
2022-07-28T17:38:15.898Z,100916.80
2022-07-28T17:43:23.647Z,100926.40
2022-07-28T17:48:26.943Z,100917.60
2022-07-28T17:53:30.439Z,100902.80
2022-07-28T17:58:34.155Z,100900.80
2022-07-28T18:03:59.159Z,100912.60
2022-07-28T18:09:08.126Z,100921.20
2022-07-28T18:14:12.013Z,100955.00
2022-07-28T18:19:19.219Z,100950.60
2022-07-28T18:24:22.842Z,100946.00
2022-07-28T18:29:37.841Z,100950.00
2022-07-28T18:34:42.038Z,100959.00
2022-07-28T18:39:46.218Z,100952.80
2022-07-28T18:44:49.631Z,100960.40
2022-07-28T18:49:52.897Z,100964.00
2022-07-28T18:54:56.664Z,100960.60
2022-07-28T19:00:00.216Z,100961.00
2022-07-28T19:05:08.470Z,100975.20
2022-07-28T19:10:11.921Z,100970.40
2022-07-28T19:15:15.336Z,100969.40
2022-07-28T19:20:19.393Z,100969.20
2022-07-28T19:25:24.371Z,100968.20
2022-07-28T19:30:30.485Z,100961.60
2022-07-28T19:35:34.314Z,100965.20
2022-07-28T19:40:38.656Z,100965.40
2022-07-28T19:45:42.091Z,100969.20
2022-07-28T19:50:51.066Z,100975.80
2022-07-28T19:55:56.271Z,100977.60
2022-07-28T20:01:00.374Z,100975.20
2022-07-28T20:06:04.017Z,100979.40
2022-07-28T20:11:08.421Z,100985.80
2022-07-28T20:16:11.866Z,100986.80
2022-07-28T20:21:15.278Z,100991.80
2022-07-28T20:26:23.502Z,100987.80
2022-07-28T20:31:28.380Z,100986.60
2022-07-28T20:36:31.871Z,100988.20
2022-07-28T20:41:35.283Z,100990.20
2022-07-28T20:46:38.696Z,100992.20
2022-07-28T20:51:45.299Z,100996.00
2022-07-28T20:56:54.613Z,100999.20
2022-07-28T21:01:58.347Z,101000.40
2022-07-28T21:07:04.193Z,100999.80
2022-07-28T21:12:08.924Z,101001.40
2022-07-28T21:17:12.410Z,101007.00
2022-07-28T21:22:16.006Z,101006.00
2022-07-28T21:27:20.171Z,101011.60
2022-07-28T21:32:23.514Z,101007.40
2022-07-28T21:37:27.068Z,101015.20
2022-07-28T21:42:30.480Z,101022.20
2022-07-28T21:47:34.357Z,101018.00
2022-07-28T21:52:39.777Z,101023.20
2022-07-28T21:57:43.296Z,101035.00
2022-07-28T22:02:46.719Z,101028.20
2022-07-28T22:07:50.321Z,101039.80
2022-07-28T22:12:53.644Z,101030.00
2022-07-28T22:17:57.144Z,101034.80
2022-07-28T22:23:00.459Z,101032.40
2022-07-28T22:28:05.433Z,101037.40
2022-07-28T22:33:08.921Z,101035.00
2022-07-28T22:38:12.623Z,101046.40
2022-07-28T22:43:16.057Z,101049.00
2022-07-28T22:48:19.679Z,101057.60
2022-07-28T22:53:23.105Z,101064.20
2022-07-28T22:58:26.803Z,101067.80
2022-07-28T23:03:31.045Z,101073.80
2022-07-28T23:08:35.031Z,101071.20
2022-07-28T23:13:38.484Z,101072.40
2022-07-28T23:18:44.561Z,101071.80
2022-07-28T23:23:48.078Z,101079.60
2022-07-28T23:28:51.492Z,101082.20
2022-07-28T23:33:57.512Z,101089.20
2022-07-28T23:39:01.300Z,101098.60
2022-07-28T23:44:05.061Z,101091.40
2022-07-28T23:49:08.608Z,101089.00
2022-07-28T23:54:14.296Z,101087.60
2022-07-28T23:59:18.503Z,101081.00
